Amunt
Inicio > meteoXarxa
Fes-te'n soci

METEOXARXA

Cinctorres
Ubicació
Comarca els Ports
Altitud (msnm) 907
Posició geogràfica 40° 34' 57.00" N, 00° 12' 58.00" W
Model Davis Vantage Pro2
Presa de dades
Font de les dades Llorens Boix Millán
Estadístiques. Resum
Data Temperatura (ºC) Humitat (%) Pressió (hPa) Vent (km/h) Precipit. (mm)
Mínima Mitjana Màxima Mínima Mitjana Màxima Mínima Mitjana Màxima Predom. Mitjana Ràfega màxima Total Dies de pluja
Mínima Mitjana Màxima Mínima Mitjana Màxima
Últimes dades diàries
19-01-2017 -6,5     -3,7     -1,9 68,0 83,6 95,0 1.022,0 1.023,7 1.025,3 ONO 5,5 25,7 10,7  
18-01-2017 -6,9     -4,2     -0,1 37,0 57,2 81,0 1.019,5 1.022,6 1.025,2 ONO 6,4 27,4 0,0  
17-01-2017 -4,7     0,7     5,5 29,0 54,6 76,0 1.011,3 1.015,4 1.019,4 ONO 24,8 83,7 0,0  
16-01-2017 2,4     5,4     8,2 66,0 78,3 92,0 1.014,2 1.017,9 1.023,3 ONO 28,1 80,5 1,2  
15-01-2017 0,9     3,1     5,9 57,0 72,4 88,0 1.022,1 1.023,3 1.025,1 NO 29,4 72,4 0,0  
14-01-2017 0,1     1,4     3,7 50,0 67,1 77,0 1.021,2 1.022,9 1.025,3 NO 27,2 70,8 0,0  
13-01-2017 1,0     4,7     10,2 51,0 67,5 86,0 1.013,2 1.016,6 1.020,9 ONO 25,3 75,6 0,0  
12-01-2017 4,3     10,3     17,2 41,0 67,6 92,0 1.015,6 1.020,4 1.024,8 OSO 7,6 49,9 0,0  
11-01-2017 4,3     7,5     10,3 75,0 79,0 82,0 1.014,0 1.020,2 1.025,3 ONO 19,7 66,0 0,0  
10-01-2017 2,3     5,4     7,3 61,0 73,9 82,0 1.012,3 1.015,8 1.021,6 ONO 23,6 72,4 0,0  
09-01-2017 -0,1     3,7     8,4 54,0 72,7 88,0 1.021,8 1.025,2 1.027,4 SO 3,2 30,6 0,0  
08-01-2017 -1,8     3,5     9,8 26,0 45,2 73,0 1.026,4 1.028,7 1.031,2 SSO 3,3 25,7 0,0  
07-01-2017 -2,2     2,5     9,1 25,0 47,0 63,0 1.029,2 1.030,1 1.031,5 S 1,9 16,1 0,0  
06-01-2017 -2,8     2,4     10,7 26,0 47,1 65,0 1.025,5 1.028,2 1.030,0 SSE 1,7 9,7 0,0  
05-01-2017 1,6     6,6     11,6 29,0 43,9 66,0 1.020,8 1.022,5 1.025,4 ONO 9,6 41,8 0,0  
04-01-2017 6,5     8,5     12,1 32,0 60,0 75,0 1.021,1 1.022,3 1.024,1 ONO 14,6 48,3 0,0  
03-01-2017 1,8     7,5     12,8 26,0 49,5 73,0 1.022,5 1.023,4 1.024,6 OSO 7,3 48,3 0,0  
02-01-2017 -2,4     2,2     9,4 35,0 67,8 87,0 1.021,2 1.022,3 1.023,4 SSE 1,9 11,3 0,0  
01-01-2017 -2,3     2,9     10,7 41,0 79,3 94,0 1.021,8 1.024,8 1.029,9 SSE 2,1 17,7 0,2  
31-12-2016 -0,4     3,7     9,8 55,0 80,5 93,0 1.030,0 1.031,8 1.034,2 S 5,1 24,1 0,0  
30-12-2016 -0,9     3,6     10,8 27,0 52,8 92,0 1.032,9 1.034,3 1.035,4 SE 1,7 17,7 0,0  
29-12-2016 1,6     7,7     15,3 21,0 37,7 54,0 1.032,8 1.034,0 1.035,3 SSE 2,3 8,0 0,0  
26-12-2016 3,8         47,0 85,0 1.031,2 1.031,8 1.032,6 S 0,7 6,4 0,0  
25-12-2016 3,8     6,9     12,1 69,0 82,5 92,0 1.031,6 1.033,8 1.036,9 S 2,6 12,9 0,0  
24-12-2016 5,1     7,5     9,8 69,0 80,7 89,0 1.035,5 1.036,3 1.037,3 NO 8,0 32,2 0,0  
23-12-2016 5,9     7,7     9,8 73,0 83,9 90,0 1.034,6 1.035,5 1.036,6 ONO 5,1 22,5 0,0  
22-12-2016 1,6     5,3     9,1 74,0 85,3 92,0 1.031,0 1.033,7 1.035,9 SO 3,2 20,9 0,0  
21-12-2016 2,4     4,8     8,8 64,0 80,0 89,0 1.022,2 1.026,6 1.031,2 O 8,0 32,2 0,0  
20-12-2016 2,4     4,5     7,7 66,0 80,0 90,0 1.015,9 1.018,6 1.022,6 ONO 12,4 45,1 0,0  
19-12-2016 1,4     2,3     3,2 89,0 94,1 97,0 1.015,1 1.017,9 1.024,0 O 9,1 24,1 2,4  
18-12-2016 1,8     3,4     4,4 88,0 92,4 95,0 1.024,5 1.029,5 1.033,3 O 3,2 19,3 1,8  
17-12-2016 3,7     6,1     7,3 88,0 92,0 96,0 1.025,4 1.030,8 1.033,9 SE 6,2 33,8 17,2  
Dades del mes en curs (actualitzades fins l'últim dia disponible)
01/2017 -6,9 -0,2 6,5 3,7 -1,9 8,5 17,2 25,0 63,9 95,0 1.011,3 1.022,4 1.031,5   12,8 83,7 12,1  
Últimes dades mensuals
12/2016 -0,9 2,9 7,6 6,0 3,2 10,3 15,3 37,7 82,5 95,3 1.017,9 1.028,0 1.036,3 3,8 45,1 45,4 13
11/2016 -2,2 4,0 8,8 7,7 7,4 11,4 16,9 61,5 72,8 92,0 1.002,0 1.014,6 1.026,5 71,0 45,4 8
10/2016 3,6 9,3 13,1 14,4 12,3 19,4 25,9 40,5 69,9 85,5 1.000,0 1.015,3 1.027,5 45,0 18,0 12
09/2016 8,3 13,3 22,1 18,7 16,3 24,2 34,7 33,0 62,2 80,0 1.009,5 1.017,0 1.026,5 52,0 16,8 9
08/2016 8,5 14,5 18,3 21,4 21,9 28,3 32,1 47,0 55,6 77,5 1.008,0 1.016,5 1.022,5 45,0 9,8 2
07/2016 7,8 15,6 20,3 22,0 21,3 28,4 35,2 39,5 55,1 67,5 1.010,5 1.015,6 1.021,0 63,0 27,6 6
06/2016 8,3 12,9 18,8 18,7 16,9 24,6 30,6 38,5 57,7 73,5 1.001,0 1.014,6 1.024,5 50,0 41,0 7
05/2016 4,8 8,2 12,8 13,4 11,7 18,5 24,1 42,5 65,5 90,5 1.005,0 1.012,9 1.021,0 68,0 36,6 10
04/2016 -0,1 5,1 10,1 9,8 5,9 14,5 21,3 49,0 64,6 93,0 1.005,0 1.012,7 1.019,0 64,0 37,6 9
03/2016 -2,5 2,5 6,8 6,7 4,8 10,9 21,7 48,5 67,3 91,0 1.004,0 1.015,4 1.026,5 68,0 21,8 8
02/2016 -7,2 2,1 10,4 6,8 3,8 11,5 16,8 42,5 64,8 86,5 991,0 1.017,4 1.036,0 90,0 21,6 10
01/2016 -1,0 3,8 10,9 8,0 3,8 12,2 18,2 53,0 68,4 87,0 1.002,5 1.020,5 1.032,5 74,0 6,6 4
12/2015 1,3 4,2 9,2 9,6 11,0 15,1 19,3 44,5 64,8 80,0 1.022,5 1.029,6 1.036,5 50,0 0,2 1
Dades de l'any en curs (actualitzades fins l'últim dia disponible)
2017 -6,9 -0,2 6,5 3,7 -1,9 8,5 17,2 25,0 63,9 95,0 1.011,3 1.022,4 1.031,5   12,8 83,7 12,1  
Últimes dades anuals